Time;durP1;ratioP1;P1;durP2;ratioP2;P2;SDS_P1;SDS_P2;PMS_P1;PMS_P2;Temp;Humidity;BMP_temperature;BMP_pressure;BME280_temperature;BME280_humidity;BME280_pressure;Samples;Min_cycle;Max_cycle;Signal;HPM_P1;HPM_P2
2024/01/25 00:00:29;;;;;;;1999.90;999.90;;;13.90;99.90;;;;;;5074637;28;20020;-74
2024/01/25 00:02:55;;;;;;;1999.90;999.90;;;13.90;99.90;;;;;;5075346;28;20070;-76
2024/01/25 00:05:21;;;;;;;1999.90;999.90;;;13.90;99.90;;;;;;5075117;28;20040;-75
2024/01/25 00:07:48;;;;;;;1999.90;999.90;;;13.90;99.90;;;;;;5075464;28;20039;-75
2024/01/25 00:10:15;;;;;;;1999.90;999.90;;;13.90;99.90;;;;;;5075208;28;20384;-74
2024/01/25 00:12:41;;;;;;;1999.90;999.90;;;13.90;99.90;;;;;;5074937;28;20029;-74
2024/01/25 00:15:07;;;;;;;1999.90;999.90;;;13.90;99.90;;;;;;5075431;28;20034;-74
2024/01/25 00:17:33;;;;;;;1999.90;999.90;;;13.90;99.90;;;;;;5074873;28;20036;-74
2024/01/25 00:19:58;;;;;;;1999.90;999.90;;;13.90;99.90;;;;;;5075167;28;20025;-74
2024/01/25 00:22:24;;;;;;;1999.90;999.90;;;13.90;99.90;;;;;;5074747;28;20070;-74
2024/01/25 00:24:49;;;;;;;1999.90;999.90;;;13.90;99.90;;;;;;5075380;28;20020;-74
2024/01/25 00:27:15;;;;;;;1999.90;999.90;;;14.00;99.90;;;;;;5073546;28;20507;-75
2024/01/25 00:29:41;;;;;;;1999.90;999.90;;;14.00;99.90;;;;;;5074990;28;20020;-75
2024/01/25 00:32:07;;;;;;;1999.90;999.90;;;14.00;99.90;;;;;;5074603;28;20028;-74
2024/01/25 00:34:33;;;;;;;1999.90;999.90;;;14.00;99.90;;;;;;5085360;28;20069;-74
2024/01/25 00:36:58;;;;;;;1999.90;999.90;;;14.00;99.90;;;;;;5076042;28;20033;-74
2024/01/25 00:39:24;;;;;;;1999.90;999.90;;;14.00;99.90;;;;;;5074572;28;20058;-75
2024/01/25 00:41:51;;;;;;;1999.90;999.90;;;14.00;99.90;;;;;;5074609;28;20021;-74
2024/01/25 00:44:17;;;;;;;1999.90;999.90;;;14.00;99.90;;;;;;5074608;28;20017;-76
2024/01/25 00:46:46;;;;;;;1999.90;999.90;;;14.00;99.90;;;;;;5074681;28;20054;-74
2024/01/25 00:49:13;;;;;;;1999.90;999.90;;;14.00;99.90;;;;;;5074395;28;20021;-75
2024/01/25 00:51:46;;;;;;;1999.90;999.90;;;13.90;99.90;;;;;;5074725;28;20021;-75
2024/01/25 00:54:12;;;;;;;1999.90;999.90;;;13.90;99.90;;;;;;5074122;28;20031;-75
2024/01/25 00:56:38;;;;;;;1999.90;999.90;;;13.90;99.90;;;;;;5074281;28;20086;-74
2024/01/25 00:59:04;;;;;;;1999.90;999.90;;;13.90;99.90;;;;;;5073248;28;20024;-75
2024/01/25 01:01:30;;;;;;;1999.90;999.90;;;13.90;99.90;;;;;;5073865;28;20025;-75
2024/01/25 01:03:57;;;;;;;1999.90;999.90;;;13.90;99.90;;;;;;5073905;28;20506;-74
2024/01/25 01:06:23;;;;;;;1999.90;999.90;;;13.90;99.90;;;;;;5073824;28;20123;-76
2024/01/25 01:08:49;;;;;;;1999.90;999.90;;;13.90;99.90;;;;;;5073880;28;20519;-75
2024/01/25 01:11:14;;;;;;;1999.90;999.90;;;13.90;99.90;;;;;;5073978;28;20033;-75
2024/01/25 01:13:40;;;;;;;1999.90;999.90;;;13.90;99.90;;;;;;5073836;28;20020;-74
2024/01/25 01:16:06;;;;;;;1999.90;999.90;;;13.90;99.90;;;;;;5074242;28;20433;-74
2024/01/25 01:18:31;;;;;;;1999.90;999.90;;;14.00;99.90;;;;;;5073558;28;20024;-74
2024/01/25 01:20:57;;;;;;;1999.90;999.90;;;14.00;99.90;;;;;;5073826;28;20028;-74
2024/01/25 01:23:23;;;;;;;1999.90;999.90;;;13.90;99.90;;;;;;5073647;28;20096;-75
2024/01/25 01:25:48;;;;;;;1999.90;999.90;;;14.00;99.90;;;;;;5074006;28;20095;-75
2024/01/25 01:28:14;;;;;;;1999.90;999.90;;;14.00;99.90;;;;;;5073339;28;20067;-74
2024/01/25 01:30:41;;;;;;;1999.90;999.90;;;14.00;99.90;;;;;;5073700;28;20062;-74
2024/01/25 01:33:08;;;;;;;1999.90;999.90;;;14.00;99.90;;;;;;5076285;28;20016;-75
2024/01/25 01:35:34;;;;;;;1999.90;999.90;;;14.00;99.90;;;;;;5078064;28;20035;-74
2024/01/25 01:38:00;;;;;;;1999.90;999.90;;;14.00;99.90;;;;;;5073012;28;20028;-74
2024/01/25 01:40:25;;;;;;;1999.90;999.90;;;14.00;99.90;;;;;;5073449;28;20020;-75
2024/01/25 01:42:51;;;;;;;1999.90;999.90;;;14.10;99.90;;;;;;5072875;28;20523;-74
2024/01/25 01:45:16;;;;;;;1999.90;999.90;;;14.10;99.90;;;;;;5073239;28;20028;-75
2024/01/25 01:47:42;;;;;;;1999.90;999.90;;;14.00;99.90;;;;;;5073295;28;20028;-75
2024/01/25 01:50:09;;;;;;;1999.90;999.90;;;14.00;99.90;;;;;;5073507;28;20024;-74
2024/01/25 01:52:35;;;;;;;1999.90;999.90;;;14.00;99.90;;;;;;5073223;28;20033;-74
2024/01/25 01:55:01;;;;;;;1999.90;999.90;;;14.00;99.90;;;;;;5055178;28;20407;-76
2024/01/25 01:57:27;;;;;;;1999.90;999.90;;;14.00;99.90;;;;;;5072960;28;20024;-74
2024/01/25 01:59:53;;;;;;;1999.90;999.90;;;14.00;99.90;;;;;;5072831;28;20020;-74
2024/01/25 02:02:19;;;;;;;1999.90;999.90;;;14.00;99.90;;;;;;5072935;28;20065;-75
2024/01/25 02:04:44;;;;;;;1999.90;999.90;;;14.00;99.90;;;;;;5073224;28;20040;-75
2024/01/25 02:07:11;;;;;;;1999.90;999.90;;;14.10;99.90;;;;;;5072237;28;20502;-74
2024/01/25 02:09:36;;;;;;;1999.90;999.90;;;14.00;99.90;;;;;;5072755;28;20037;-74
2024/01/25 02:12:02;;;;;;;1999.90;999.90;;;14.10;99.90;;;;;;5072801;28;20024;-75
2024/01/25 02:14:28;;;;;;;1999.90;999.90;;;14.10;99.90;;;;;;5072997;28;20032;-76
2024/01/25 02:16:54;;;;;;;1999.90;999.90;;;14.10;99.90;;;;;;5072942;28;20032;-74
2024/01/25 02:19:20;;;;;;;1999.90;999.90;;;14.10;99.90;;;;;;5072780;28;20021;-75
2024/01/25 02:21:46;;;;;;;1999.90;999.90;;;14.10;99.90;;;;;;5072732;28;20024;-74
2024/01/25 02:24:11;;;;;;;1999.90;999.90;;;14.10;99.90;;;;;;5072665;28;20475;-75
2024/01/25 02:26:37;;;;;;;1999.90;999.90;;;14.10;99.90;;;;;;5072479;28;20047;-76
2024/01/25 02:29:04;;;;;;;1999.90;999.90;;;14.10;99.90;;;;;;5072897;28;20494;-74
2024/01/25 02:31:30;;;;;;;1999.90;999.90;;;14.10;99.90;;;;;;5071914;28;20037;-74
2024/01/25 02:33:56;;;;;;;1999.90;999.90;;;14.20;99.90;;;;;;5077892;28;20044;-74
2024/01/25 02:36:25;;;;;;;1999.90;999.90;;;14.10;99.90;;;;;;5079386;28;20530;-76
2024/01/25 02:38:50;;;;;;;1999.90;999.90;;;14.10;99.90;;;;;;5072616;28;20021;-75
2024/01/25 02:41:16;;;;;;;1999.90;999.90;;;14.10;99.90;;;;;;5072707;28;20031;-76
2024/01/25 02:43:41;;;;;;;1999.90;999.90;;;14.10;99.90;;;;;;5072811;28;20027;-74
2024/01/25 02:46:08;;;;;;;1999.90;999.90;;;14.10;99.90;;;;;;5072457;28;20024;-75
2024/01/25 02:48:34;;;;;;;1999.90;999.90;;;14.10;99.90;;;;;;5072056;28;20054;-74
2024/01/25 02:51:00;;;;;;;1999.90;999.90;;;14.10;99.90;;;;;;5075282;28;20491;-75
2024/01/25 02:53:26;;;;;;;1999.90;999.90;;;14.10;99.90;;;;;;5076619;28;20118;-76
2024/01/25 02:55:51;;;;;;;1999.90;999.90;;;14.10;99.90;;;;;;5076779;28;20395;-75
2024/01/25 02:58:17;;;;;;;1999.90;999.90;;;14.10;99.90;;;;;;5076242;28;20024;-74
2024/01/25 03:00:42;;;;;;;1999.90;999.90;;;14.10;99.90;;;;;;5058332;28;20032;-76
2024/01/25 03:03:08;;;;;;;1999.90;999.90;;;14.10;99.90;;;;;;5076025;28;20074;-75
2024/01/25 03:05:34;;;;;;;1999.90;999.90;;;14.10;99.90;;;;;;5076445;28;20503;-74
2024/01/25 03:08:00;;;;;;;1999.90;999.90;;;14.10;99.90;;;;;;5076301;28;20021;-74
2024/01/25 03:10:26;;;;;;;1999.90;999.90;;;14.10;99.90;;;;;;5075833;28;20044;-75
2024/01/25 03:12:51;;;;;;;1999.90;999.90;;;14.10;99.90;;;;;;5076219;28;20546;-75
2024/01/25 03:15:17;;;;;;;1999.90;999.90;;;14.10;99.90;;;;;;5075393;28;20071;-74
2024/01/25 03:17:43;;;;;;;1999.90;999.90;;;14.10;99.90;;;;;;5076434;28;20395;-75
2024/01/25 03:20:09;;;;;;;1999.90;999.90;;;14.10;99.90;;;;;;5076098;28;20020;-74
2024/01/25 03:22:35;;;;;;;1999.90;999.90;;;14.10;99.90;;;;;;5075772;28;20087;-74
2024/01/25 03:25:01;;;;;;;1999.90;999.90;;;14.00;99.90;;;;;;5076254;28;20487;-75
2024/01/25 03:27:26;;;;;;;1999.90;999.90;;;14.00;99.90;;;;;;5075686;28;20095;-76
2024/01/25 03:29:52;;;;;;;1999.90;999.90;;;14.00;99.90;;;;;;5076024;28;20020;-75
2024/01/25 03:32:18;;;;;;;1999.90;999.90;;;14.00;99.90;;;;;;5075900;28;20021;-74
2024/01/25 03:34:43;;;;;;;1999.90;999.90;;;14.00;99.90;;;;;;5088200;28;20530;-75
2024/01/25 03:37:09;;;;;;;1999.90;999.90;;;14.00;99.90;;;;;;5095561;28;20483;-75
2024/01/25 03:39:34;;;;;;;1999.90;999.90;;;14.00;99.90;;;;;;5095898;28;20054;-74
2024/01/25 03:42:00;;;;;;;1999.90;999.90;;;14.00;99.90;;;;;;5096033;28;20020;-75
2024/01/25 03:44:26;;;;;;;1999.90;999.90;;;14.00;99.90;;;;;;5095889;28;20024;-75
2024/01/25 03:46:51;;;;;;;1999.90;999.90;;;14.00;99.90;;;;;;5095947;28;20020;-74
2024/01/25 03:49:18;;;;;;;1999.90;999.90;;;14.00;99.90;;;;;;5095687;28;20032;-74
2024/01/25 03:51:44;;;;;;;1999.90;999.90;;;14.00;99.90;;;;;;5077653;28;20379;-74
2024/01/25 03:54:10;;;;;;;1999.90;999.90;;;14.00;99.90;;;;;;5095904;28;20032;-76
2024/01/25 03:56:35;;;;;;;1999.90;999.90;;;14.00;99.90;;;;;;5077516;28;20518;-76
2024/01/25 03:59:01;;;;;;;1999.90;999.90;;;14.00;99.90;;;;;;5095543;28;20237;-76
2024/01/25 04:01:26;;;;;;;1999.90;999.90;;;14.00;99.90;;;;;;5077838;28;20104;-73
2024/01/25 04:03:52;;;;;;;1999.90;999.90;;;14.10;99.90;;;;;;5075047;28;20528;-74
2024/01/25 04:06:17;;;;;;;1999.90;999.90;;;14.10;99.90;;;;;;5074707;28;20048;-74
2024/01/25 04:08:43;;;;;;;1999.90;999.90;;;14.10;99.90;;;;;;5074468;28;20135;-74
2024/01/25 04:11:10;;;;;;;1999.90;999.90;;;14.10;99.90;;;;;;5075241;28;20044;-74
2024/01/25 04:13:36;;;;;;;1999.90;999.90;;;14.10;99.90;;;;;;5075092;28;20545;-74
2024/01/25 04:16:01;;;;;;;1999.90;999.90;;;14.10;99.90;;;;;;5074887;28;20032;-75
2024/01/25 04:18:27;;;;;;;1999.90;999.90;;;14.10;99.90;;;;;;5075068;28;20111;-75
2024/01/25 04:20:52;;;;;;;1999.90;999.90;;;14.10;99.90;;;;;;5075099;28;20573;-76
2024/01/25 04:23:18;;;;;;;1999.90;999.90;;;14.10;99.90;;;;;;5075088;28;20104;-75
2024/01/25 04:25:44;;;;;;;1999.90;999.90;;;14.00;99.90;;;;;;5075113;28;20050;-76
2024/01/25 04:28:10;;;;;;;1999.90;999.90;;;14.00;99.90;;;;;;5074839;28;20032;-75
2024/01/25 04:30:35;;;;;;;1999.90;999.90;;;13.90;99.90;;;;;;5074802;28;20075;-74
2024/01/25 04:33:02;;;;;;;1999.90;999.90;;;13.90;99.90;;;;;;5076787;28;20529;-76
2024/01/25 04:35:27;;;;;;;1999.90;999.90;;;13.80;99.90;;;;;;5084695;28;20112;-75
2024/01/25 04:37:53;;;;;;;1999.90;999.90;;;13.80;99.90;;;;;;5074769;28;20116;-74
2024/01/25 04:40:19;;;;;;;1999.90;999.90;;;13.80;99.90;;;;;;5074419;28;20471;-76
2024/01/25 04:42:44;;;;;;;1999.90;999.90;;;13.80;99.90;;;;;;5056821;28;20024;-76
2024/01/25 04:45:10;;;;;;;1999.90;999.90;;;13.80;99.90;;;;;;5074532;28;20104;-75
2024/01/25 04:47:38;;;;;;;1999.90;999.90;;;13.80;99.90;;;;;;5074543;28;20029;-76
2024/01/25 04:50:04;;;;;;;1999.90;999.90;;;13.80;99.90;;;;;;5074059;28;20021;-76
2024/01/25 04:52:30;;;;;;;1999.90;999.90;;;13.80;99.90;;;;;;5074697;28;20037;-76
2024/01/25 04:54:56;;;;;;;1999.90;999.90;;;13.70;99.90;;;;;;5074508;28;20021;-76
2024/01/25 04:57:21;;;;;;;1999.90;999.90;;;13.70;99.90;;;;;;5074179;28;20064;-76
2024/01/25 04:59:47;;;;;;;1999.90;999.90;;;13.70;99.90;;;;;;5073763;28;20031;-76
2024/01/25 05:02:12;;;;;;;1999.90;999.90;;;13.60;99.90;;;;;;5074001;28;20028;-75
2024/01/25 05:04:38;;;;;;;1999.90;999.90;;;13.60;99.90;;;;;;5073793;28;20035;-76
2024/01/25 05:07:04;;;;;;;1999.90;999.90;;;13.50;99.90;;;;;;5073300;28;20024;-75
2024/01/25 05:09:29;;;;;;;1999.90;999.90;;;13.60;99.90;;;;;;5073770;28;20084;-73
2024/01/25 05:11:58;;;;;;;1999.90;999.90;;;13.50;99.90;;;;;;5074056;28;20033;-74
2024/01/25 05:14:24;;;;;;;1999.90;999.90;;;13.50;99.90;;;;;;5073200;28;20056;-75
2024/01/25 05:16:50;;;;;;;1999.90;999.90;;;13.50;99.90;;;;;;5073943;28;20016;-75
2024/01/25 05:19:15;;;;;;;1999.90;999.90;;;13.40;99.90;;;;;;5073723;28;20557;-73
2024/01/25 05:21:41;;;;;;;1999.90;999.90;;;13.30;99.90;;;;;;5072471;28;20036;-75
2024/01/25 05:24:07;;;;;;;1999.90;999.90;;;13.30;99.90;;;;;;5055216;28;20031;-75
2024/01/25 05:26:33;;;;;;;1999.90;999.90;;;13.30;99.90;;;;;;5073528;28;20082;-75
2024/01/25 05:28:59;;;;;;;1999.90;999.90;;;13.30;99.90;;;;;;5053052;28;20021;-75
2024/01/25 05:31:24;;;;;;;1999.90;999.90;;;13.40;99.90;;;;;;5053761;28;20033;-75
2024/01/25 05:33:50;;;;;;;1999.90;999.90;;;13.30;99.90;;;;;;5076672;28;20024;-75
2024/01/25 05:36:15;;;;;;;1999.90;999.90;;;13.30;99.90;;;;;;5081671;28;20032;-75
2024/01/25 05:38:41;;;;;;;1999.90;999.90;;;13.30;99.90;;;;;;5073229;28;20060;-76
2024/01/25 05:41:07;;;;;;;1999.90;999.90;;;13.20;99.90;;;;;;5084515;28;20107;-75
2024/01/25 05:43:33;;;;;;;1999.90;999.90;;;13.20;99.90;;;;;;5074534;28;20110;-73
2024/01/25 05:45:58;;;;;;;1999.90;999.90;;;13.20;99.90;;;;;;5073468;28;20028;-73
2024/01/25 05:48:24;;;;;;;1999.90;999.90;;;13.10;99.90;;;;;;5073276;28;20030;-75
2024/01/25 05:50:50;;;;;;;1999.90;999.90;;;13.10;99.90;;;;;;5072659;28;20029;-73
2024/01/25 05:53:18;;;;;;;1999.90;999.90;;;13.00;99.90;;;;;;5073524;28;20025;-75
2024/01/25 05:55:44;;;;;;;1999.90;999.90;;;12.90;99.90;;;;;;5073118;28;20495;-73
2024/01/25 05:58:10;;;;;;;1999.90;999.90;;;12.90;99.90;;;;;;5072790;28;20047;-75
2024/01/25 06:00:35;;;;;;;1999.90;999.90;;;12.90;99.90;;;;;;5072969;28;20252;-73
2024/01/25 06:03:01;;;;;;;1999.90;999.90;;;12.80;99.90;;;;;;5067977;28;20035;-75
2024/01/25 06:05:26;;;;;;;1999.90;999.90;;;12.80;99.90;;;;;;5072557;28;20044;-75
2024/01/25 06:07:52;;;;;;;1999.90;999.90;;;12.90;99.90;;;;;;5072809;28;20373;-75
2024/01/25 06:10:17;;;;;;;1999.90;999.90;;;12.90;99.90;;;;;;5072415;28;20111;-75
2024/01/25 06:12:43;;;;;;;1999.90;999.90;;;12.90;99.90;;;;;;5072692;28;20028;-75
2024/01/25 06:15:09;;;;;;;1999.90;999.90;;;12.90;99.90;;;;;;5072956;28;20036;-75
2024/01/25 06:17:35;;;;;;;1999.90;999.90;;;12.90;99.90;;;;;;5072572;28;20029;-73
2024/01/25 06:20:00;;;;;;;1999.90;999.90;;;12.90;99.90;;;;;;5072814;28;20023;-73
2024/01/25 06:22:26;;;;;;;1999.90;999.90;;;12.90;99.90;;;;;;5072638;28;20024;-75
2024/01/25 06:24:52;;;;;;;1999.90;999.90;;;12.90;99.90;;;;;;5071934;28;20059;-75
2024/01/25 06:27:17;;;;;;;1999.90;999.90;;;12.90;99.90;;;;;;5072277;28;20170;-73
2024/01/25 06:29:43;;;;;;;1999.90;999.90;;;12.80;99.90;;;;;;5072622;28;20035;-73
2024/01/25 06:32:10;;;;;;;1999.90;999.90;;;12.80;99.90;;;;;;5052904;28;20035;-73
2024/01/25 06:34:35;;;;;;;1999.90;999.90;;;12.70;99.90;;;;;;5082369;28;20038;-73
2024/01/25 06:37:01;;;;;;;1999.90;999.90;;;12.70;99.90;;;;;;5073939;28;20394;-72
2024/01/25 06:39:26;;;;;;;1999.90;999.90;;;12.60;99.90;;;;;;5071411;28;20078;-76
2024/01/25 06:41:52;;;;;;;1999.90;999.90;;;12.60;99.90;;;;;;5071624;28;20545;-72
2024/01/25 06:44:18;;;;;;;1999.90;999.90;;;12.50;99.90;;;;;;5037299;28;20029;-73
2024/01/25 06:46:43;;;;;;;1999.90;999.90;;;12.40;99.90;;;;;;5074022;28;20047;-77
2024/01/25 06:49:09;;;;;;;1999.90;999.90;;;12.40;99.90;;;;;;5088909;28;20103;-72
2024/01/25 06:51:34;;;;;;;1999.90;999.90;;;12.40;99.90;;;;;;5074347;28;20032;-73
2024/01/25 06:54:00;;;;;;;1999.90;999.90;;;12.40;99.90;;;;;;5087516;28;20073;-73
2024/01/25 06:56:26;;;;;;;1999.90;999.90;;;12.50;99.90;;;;;;5081744;28;20105;-76
2024/01/25 06:58:51;;;;;;;1999.90;999.90;;;12.60;99.90;;;;;;5074695;28;20381;-76
2024/01/25 07:01:21;;;;;;;1999.90;999.90;;;12.60;99.90;;;;;;5054028;28;20380;-73
2024/01/25 07:03:47;;;;;;;1999.90;999.90;;;12.60;99.90;;;;;;5091576;28;20449;-73
2024/01/25 07:06:13;;;;;;;1999.90;999.90;;;12.60;99.90;;;;;;5090818;28;20044;-76
2024/01/25 07:08:38;;;;;;;1999.90;999.90;;;12.60;99.90;;;;;;5074911;28;20032;-72
2024/01/25 07:11:04;;;;;;;1999.90;999.90;;;12.60;99.90;;;;;;5053392;28;20043;-73
2024/01/25 07:13:29;;;;;;;1999.90;999.90;;;12.60;99.90;;;;;;5072158;28;20028;-76
2024/01/25 07:15:55;;;;;;;1999.90;999.90;;;12.50;99.90;;;;;;5074067;28;20545;-72
2024/01/25 07:18:22;;;;;;;1999.90;999.90;;;12.50;99.90;;;;;;5080152;28;20035;-76
2024/01/25 07:20:48;;;;;;;1999.90;999.90;;;12.40;99.90;;;;;;5085977;28;20067;-76
2024/01/25 07:23:13;;;;;;;1999.90;999.90;;;12.40;99.90;;;;;;5071872;28;20046;-76
2024/01/25 07:25:39;;;;;;;1999.90;999.90;;;12.30;99.90;;;;;;5084833;28;20165;-72
2024/01/25 07:28:05;;;;;;;1999.90;999.90;;;12.30;99.90;;;;;;5068722;28;20040;-73
2024/01/25 07:30:30;;;;;;;1999.90;999.90;;;12.20;99.90;;;;;;5071256;28;20043;-73
2024/01/25 07:32:56;;;;;;;1999.90;999.90;;;12.20;99.90;;;;;;5083919;28;20036;-73
2024/01/25 07:35:23;;;;;;;1999.90;999.90;;;12.20;99.90;;;;;;5072876;28;20074;-73
2024/01/25 07:37:48;;;;;;;1999.90;999.90;;;12.20;99.90;;;;;;5076648;28;20048;-73
2024/01/25 07:40:14;;;;;;;1999.90;999.90;;;12.10;99.90;;;;;;5075472;28;20060;-76
2024/01/25 07:42:40;;;;;;;1999.90;999.90;;;12.10;99.90;;;;;;5081350;28;20028;-72
2024/01/25 07:45:06;;;;;;;1999.90;999.90;;;12.20;99.90;;;;;;5090997;28;20108;-72
2024/01/25 07:47:32;;;;;;;1999.90;999.90;;;12.20;99.90;;;;;;5077330;28;20021;-77
2024/01/25 07:49:57;;;;;;;1999.90;999.90;;;12.20;99.90;;;;;;5081363;28;20508;-75
2024/01/25 07:52:23;;;;;;;1999.90;999.90;;;12.10;99.90;;;;;;5081665;28;20076;-75
2024/01/25 07:54:49;;;;;;;1999.90;999.90;;;12.10;99.90;;;;;;5078931;28;20129;-72
2024/01/25 07:57:14;;;;;;;1999.90;999.90;;;12.10;99.90;;;;;;5075319;28;20078;-72
2024/01/25 07:59:40;;;;;;;1999.90;999.90;;;12.10;99.90;;;;;;5083980;28;20376;-74
2024/01/25 08:02:06;;;;;;;1999.90;999.90;;;12.10;99.90;;;;;;5087601;28;20655;-75
2024/01/25 08:04:31;;;;;;;1999.90;999.90;;;12.10;99.90;;;;;;5078878;28;20451;-75
2024/01/25 08:06:58;;;;;;;1999.90;999.90;;;12.10;99.90;;;;;;5067142;28;20036;-73
2024/01/25 08:09:23;;;;;;;1999.90;999.90;;;12.10;99.90;;;;;;5084052;28;20162;-73
2024/01/25 08:11:49;;;;;;;1999.90;999.90;;;12.20;99.90;;;;;;5059767;28;20052;-74
2024/01/25 08:14:15;;;;;;;1999.90;999.90;;;12.30;99.90;;;;;;5077643;28;20483;-75
2024/01/25 08:16:41;;;;;;;1999.90;999.90;;;12.20;99.90;;;;;;5078666;28;20403;-76
2024/01/25 08:19:07;;;;;;;1999.90;999.90;;;12.40;99.90;;;;;;5085566;28;20051;-76
2024/01/25 08:21:32;;;;;;;1999.90;999.90;;;12.30;99.90;;;;;;5082047;28;20047;-76
2024/01/25 08:23:59;;;;;;;1999.90;999.90;;;12.30;99.90;;;;;;5088401;28;20036;-74
2024/01/25 08:26:25;;;;;;;1999.90;999.90;;;12.30;99.90;;;;;;5088557;28;20031;-73
2024/01/25 08:28:51;;;;;;;1999.90;999.90;;;12.30;99.90;;;;;;5075307;28;20040;-76
2024/01/25 08:31:16;;;;;;;1999.90;999.90;;;12.30;99.90;;;;;;5066942;28;20035;-75
2024/01/25 08:33:44;;;;;;;1999.90;999.90;;;12.30;99.90;;;;;;5070742;28;20077;-76
2024/01/25 08:36:10;;;;;;;1999.90;999.90;;;12.40;99.90;;;;;;5070958;28;20107;-74
2024/01/25 08:38:35;;;;;;;1999.90;999.90;;;12.50;99.90;;;;;;5073067;28;20036;-74
2024/01/25 08:41:01;;;;;;;1999.90;999.90;;;12.60;99.90;;;;;;5082219;28;20020;-75
2024/01/25 08:43:27;;;;;;;1999.90;999.90;;;13.20;99.90;;;;;;5083597;28;20028;-74
2024/01/25 08:45:53;;;;;;;1999.90;999.90;;;14.00;99.90;;;;;;5085434;28;20029;-74
2024/01/25 08:48:18;;;;;;;1999.90;999.90;;;14.20;99.90;;;;;;5074800;28;20703;-76
2024/01/25 08:50:44;;;;;;;1999.90;999.90;;;14.50;99.90;;;;;;5074854;28;20043;-74
2024/01/25 08:53:09;;;;;;;1999.90;999.90;;;14.20;99.90;;;;;;5073064;28;20032;-74
2024/01/25 08:55:35;;;;;;;1999.90;999.90;;;14.10;99.90;;;;;;5083491;28;20024;-75
2024/01/25 08:58:01;;;;;;;1999.90;999.90;;;14.30;99.90;;;;;;5074503;28;20040;-74
2024/01/25 09:00:26;;;;;;;1999.90;999.90;;;13.60;99.90;;;;;;5077286;28;20029;-76
2024/01/25 09:02:53;;;;;;;1999.90;999.90;;;13.40;99.90;;;;;;5081538;28;20368;-74
2024/01/25 09:05:18;;;;;;;1999.90;999.90;;;13.30;99.90;;;;;;5079262;28;20109;-74
2024/01/25 09:07:44;;;;;;;1999.90;999.90;;;13.20;99.90;;;;;;5052879;28;20488;-76
2024/01/25 09:10:11;;;;;;;1999.90;999.90;;;13.20;99.90;;;;;;5074508;28;20029;-76
2024/01/25 09:12:37;;;;;;;1999.90;999.90;;;13.20;99.90;;;;;;5072786;28;20506;-74
2024/01/25 09:15:03;;;;;;;1999.90;999.90;;;13.10;99.90;;;;;;5073613;28;20028;-74
2024/01/25 09:17:29;;;;;;;1999.90;999.90;;;13.10;99.90;;;;;;5072320;28;20028;-74
2024/01/25 09:19:58;;;;;;;1999.90;999.90;;;13.10;99.90;;;;;;5074105;28;20553;-76
2024/01/25 09:22:24;;;;;;;1999.90;999.90;;;13.10;99.90;;;;;;5071408;28;20032;-76
2024/01/25 09:24:50;;;;;;;1999.90;999.90;;;13.00;99.90;;;;;;5079459;28;20055;-74
2024/01/25 09:27:15;;;;;;;1999.90;999.90;;;13.00;99.90;;;;;;5074866;28;20475;-75
2024/01/25 09:29:42;;;;;;;1999.90;999.90;;;13.00;99.90;;;;;;5076200;28;21078;-75
2024/01/25 09:32:08;;;;;;;1999.90;999.90;;;13.10;99.90;;;;;;5076806;28;20055;-73
2024/01/25 09:34:37;;;;;;;1999.90;999.90;;;13.10;99.90;;;;;;5073841;28;20391;-75
2024/01/25 09:37:04;;;;;;;1999.90;999.90;;;13.10;99.90;;;;;;5077717;28;20115;-75
2024/01/25 09:39:29;;;;;;;1999.90;999.90;;;13.20;99.90;;;;;;5073996;28;20376;-74
2024/01/25 09:41:55;;;;;;;1999.90;999.90;;;13.30;99.90;;;;;;5070789;28;20039;-74
2024/01/25 09:44:21;;;;;;;1999.90;999.90;;;13.40;99.90;;;;;;5071580;28;20640;-74
2024/01/25 09:46:47;;;;;;;1999.90;999.90;;;13.40;99.90;;;;;;5072998;28;20036;-76
2024/01/25 09:49:13;;;;;;;1999.90;999.90;;;13.60;99.90;;;;;;5082331;28;20075;-74
2024/01/25 09:51:42;;;;;;;1999.90;999.90;;;13.60;99.90;;;;;;5086773;28;20030;-76
2024/01/25 09:54:08;;;;;;;1999.90;999.90;;;13.60;99.90;;;;;;5065841;28;20037;-74
2024/01/25 09:56:35;;;;;;;1999.90;999.90;;;13.60;99.90;;;;;;5073966;28;20040;-73
2024/01/25 09:59:01;;;;;;;1999.90;999.90;;;13.60;99.90;;;;;;5083366;28;20056;-76
2024/01/25 10:01:28;;;;;;;1999.90;999.90;;;13.60;99.90;;;;;;5069808;28;20024;-75
2024/01/25 10:03:57;;;;;;;1999.90;999.90;;;13.60;99.90;;;;;;5072159;28;20028;-77
2024/01/25 10:06:22;;;;;;;1999.90;999.90;;;13.70;99.90;;;;;;5075447;28;20403;-76
2024/01/25 10:08:49;;;;;;;1999.90;999.90;;;13.80;99.90;;;;;;5066631;28;20025;-76
2024/01/25 10:11:15;;;;;;;1999.90;999.90;;;13.80;99.90;;;;;;5073796;28;20070;-76
2024/01/25 10:13:45;;;;;;;1999.90;999.90;;;13.80;99.90;;;;;;5073407;28;20048;-77
2024/01/25 10:16:19;;;;;;;1999.90;999.90;;;13.90;99.90;;;;;;5070638;28;20032;-76
2024/01/25 10:18:48;;;;;;;1999.90;999.90;;;13.90;99.90;;;;;;5071098;28;20032;-76
2024/01/25 10:21:15;;;;;;;1999.90;999.90;;;13.90;99.90;;;;;;5085501;28;20038;-74
2024/01/25 10:23:43;;;;;;;1999.90;999.90;;;14.00;99.90;;;;;;5082749;28;20108;-75
2024/01/25 10:26:09;;;;;;;1999.90;999.90;;;13.90;99.90;;;;;;5052066;28;20043;-77
2024/01/25 10:28:34;;;;;;;1999.90;999.90;;;13.90;99.90;;;;;;5075451;28;20024;-76
2024/01/25 10:31:04;;;;;;;1999.90;999.90;;;14.00;99.90;;;;;;5084954;28;20467;-73
2024/01/25 10:33:30;;;;;;;1999.90;999.90;;;14.10;99.90;;;;;;5079181;28;20024;-76
2024/01/25 10:36:03;;;;;;;1999.90;999.90;;;14.10;99.90;;;;;;5070735;28;20402;-74
2024/01/25 10:38:32;;;;;;;1999.90;999.90;;;14.00;99.90;;;;;;5075716;28;20078;-77
2024/01/25 10:41:02;;;;;;;1999.90;999.90;;;14.10;99.90;;;;;;5079028;28;20032;-72
2024/01/25 10:43:31;;;;;;;1999.90;999.90;;;14.10;99.90;;;;;;5081079;28;20039;-80
2024/01/25 10:45:58;;;;;;;1999.90;999.90;;;14.00;99.90;;;;;;5075109;28;20419;-76
2024/01/25 10:48:28;;;;;;;1999.90;999.90;;;14.00;99.90;;;;;;5049966;28;20032;-74
2024/01/25 10:50:55;;;;;;;1999.90;999.90;;;13.90;99.90;;;;;;5084257;28;20044;-74
2024/01/25 10:53:21;;;;;;;1999.90;999.90;;;14.00;99.90;;;;;;5079909;28;20060;-77
2024/01/25 10:55:47;;;;;;;1999.90;999.90;;;14.10;99.90;;;;;;5085501;28;20089;-76
2024/01/25 10:58:16;;;;;;;1999.90;999.90;;;14.10;99.90;;;;;;5085940;28;20028;-74
2024/01/25 11:00:53;;;;;;;1999.90;999.90;;;14.20;99.90;;;;;;5074587;28;20030;-75
2024/01/25 11:03:19;;;;;;;1999.90;999.90;;;14.20;99.90;;;;;;5084783;28;20020;-77
2024/01/25 11:05:47;;;;;;;1999.90;999.90;;;14.20;99.90;;;;;;5088745;28;20076;-76
2024/01/25 11:08:19;;;;;;;1999.90;999.90;;;14.50;99.90;;;;;;5071727;28;20082;-77
2024/01/25 11:10:51;;;;;;;1999.90;999.90;;;14.50;99.90;;;;;;5073469;28;20127;-75
2024/01/25 11:13:24;;;;;;;1999.90;999.90;;;14.50;99.90;;;;;;5081170;28;20774;-74
2024/01/25 11:15:49;;;;;;;1999.90;999.90;;;14.60;99.90;;;;;;5086133;28;20068;-75
2024/01/25 11:18:16;;;;;;;1999.90;999.90;;;14.60;99.90;;;;;;5080860;28;20568;-75
2024/01/25 11:20:41;;;;;;;1999.90;999.90;;;14.60;99.90;;;;;;5078778;28;20032;-76
2024/01/25 11:23:10;;;;;;;1999.90;999.90;;;14.70;99.90;;;;;;5084383;28;20028;-76
2024/01/25 11:25:37;;;;;;;1999.90;999.90;;;14.80;99.90;;;;;;5090185;28;20208;-75
2024/01/25 11:28:04;;;;;;;1999.90;999.90;;;15.00;99.90;;;;;;5078458;28;20036;-76
2024/01/25 11:30:34;;;;;;;1999.90;999.90;;;15.00;99.90;;;;;;5072557;28;20125;-75
2024/01/25 11:33:04;;;;;;;1999.90;999.90;;;15.00;99.90;;;;;;5081061;28;20395;-77
2024/01/25 11:35:29;;;;;;;1999.90;999.90;;;14.90;99.90;;;;;;5070614;28;20043;-75
2024/01/25 11:37:55;;;;;;;1999.90;999.90;;;15.10;99.90;;;;;;5059813;28;20035;-75
2024/01/25 11:40:21;;;;;;;1999.90;999.90;;;15.20;99.90;;;;;;5083853;28;20028;-75
2024/01/25 11:42:50;;;;;;;1999.90;999.90;;;15.10;99.90;;;;;;5065476;28;20437;-76
2024/01/25 11:45:17;;;;;;;1999.90;999.90;;;15.10;99.90;;;;;;5084400;28;20099;-75
2024/01/25 11:47:43;;;;;;;1999.90;999.90;;;15.30;99.90;;;;;;5075336;28;20024;-76
2024/01/25 11:50:11;;;;;;;1999.90;999.90;;;15.20;99.90;;;;;;5090618;28;20463;-77
2024/01/25 11:52:37;;;;;;;1999.90;999.90;;;15.20;99.90;;;;;;5068605;28;20036;-75